Time;durP1;ratioP1;P1;durP2;ratioP2;P2;SDS_P1;SDS_P2;PMS_P1;PMS_P2;Temp;Humidity;BMP_temperature;BMP_pressure;BME280_temperature;BME280_humidity;BME280_pressure;Samples;Min_cycle;Max_cycle;Signal;HPM_P1;HPM_P2
2023/07/09 00:02:56;;;;;;;10.57;6.78;;;;;20.80;101193.00;;;;10112760;29;20287;-81
2023/07/09 00:07:58;;;;;;;10.38;6.88;;;;;20.70;101196.00;;;;10094869;29;20212;-84
2023/07/09 00:13:00;;;;;;;9.20;6.95;;;;;20.70;101193.00;;;;10113133;29;20208;-82
2023/07/09 00:18:01;;;;;;;8.68;6.80;;;;;20.70;101196.00;;;;10104420;29;20321;-79
2023/07/09 00:23:04;;;;;;;9.52;7.22;;;;;20.60;101197.00;;;;10107966;29;20286;-79
2023/07/09 00:28:11;;;;;;;10.93;6.70;;;;;20.50;101213.00;;;;10105596;29;20228;-78
2023/07/09 00:33:15;;;;;;;9.20;7.13;;;;;20.50;101200.00;;;;10098863;29;20283;-80
2023/07/09 00:38:22;;;;;;;10.38;7.57;;;;;20.50;101196.00;;;;10087928;29;20821;-82
2023/07/09 00:43:24;;;;;;;9.55;7.03;;;;;20.40;101200.00;;;;10095255;29;20219;-82
2023/07/09 00:48:26;;;;;;;14.57;7.60;;;;;20.40;101191.00;;;;10113407;29;20483;-87
2023/07/09 00:53:31;;;;;;;11.95;7.05;;;;;20.30;101196.00;;;;10120437;29;20291;-81
2023/07/09 00:58:37;;;;;;;12.05;8.02;;;;;20.30;101195.00;;;;10106751;29;20314;-77
2023/07/09 01:03:44;;;;;;;13.52;8.25;;;;;20.30;101196.00;;;;10123098;29;20207;-83
2023/07/09 01:08:53;;;;;;;11.75;8.77;;;;;20.40;101194.00;;;;10113693;29;20216;-81
2023/07/09 01:13:59;;;;;;;12.23;8.82;;;;;20.50;101201.00;;;;10097683;29;20223;-81
2023/07/09 01:19:00;;;;;;;10.40;9.30;;;;;20.60;101202.00;;;;10090010;29;20250;-82
2023/07/09 01:24:46;;;;;;;11.77;8.77;;;;;20.70;101196.00;;;;10135024;29;20222;-82
2023/07/09 01:29:49;;;;;;;11.02;9.40;;;;;20.80;101198.00;;;;10129463;29;20217;-82
2023/07/09 01:34:58;;;;;;;12.30;9.13;;;;;20.80;101195.00;;;;10112753;29;20211;-82
2023/07/09 01:39:59;;;;;;;10.60;8.45;;;;;20.80;101194.00;;;;10131560;29;20222;-81
2023/07/09 01:45:03;;;;;;;12.45;9.63;;;;;20.80;101198.00;;;;10133290;29;20243;-82
2023/07/09 01:50:07;;;;;;;12.25;9.43;;;;;20.80;101196.00;;;;10133622;29;20219;-81
2023/07/09 01:55:10;;;;;;;16.02;9.15;;;;;20.90;101187.00;;;;10096951;29;20268;-82
2023/07/09 02:00:15;;;;;;;11.32;8.43;;;;;20.90;101188.00;;;;10102866;29;20653;-81
2023/07/09 02:05:19;;;;;;;11.32;9.32;;;;;20.90;101186.00;;;;10101494;29;20611;-81
2023/07/09 02:10:20;;;;;;;13.30;8.95;;;;;20.90;101188.00;;;;10126727;29;20605;-81
2023/07/09 02:15:22;;;;;;;9.55;8.25;;;;;20.90;101187.00;;;;10133727;29;20202;-82
2023/07/09 02:20:26;;;;;;;13.07;8.13;;;;;20.80;101188.00;;;;10160152;29;20249;-81
2023/07/09 02:25:27;;;;;;;11.15;7.55;;;;;20.80;101184.00;;;;10133651;29;20242;-82
2023/07/09 02:30:28;;;;;;;11.32;7.45;;;;;20.80;101177.00;;;;10088287;29;20256;-81
2023/07/09 02:35:29;;;;;;;11.57;8.07;;;;;20.70;101174.00;;;;10122139;29;20211;-81
2023/07/09 02:40:31;;;;;;;11.60;7.50;;;;;20.70;101176.00;;;;10121534;29;20246;-82
2023/07/09 02:45:32;;;;;;;17.23;8.02;;;;;20.60;101174.00;;;;10125637;29;20678;-81
2023/07/09 02:50:34;;;;;;;10.30;8.35;;;;;20.50;101175.00;;;;10143914;29;20231;-81
2023/07/09 02:55:35;;;;;;;11.40;7.50;;;;;20.50;101169.00;;;;10127781;29;20262;-81
2023/07/09 03:00:37;;;;;;;15.10;8.18;;;;;20.40;101167.00;;;;10137899;29;20218;-81
2023/07/09 03:05:38;;;;;;;13.13;8.15;;;;;20.40;101176.00;;;;10117171;29;20252;-81
2023/07/09 03:10:40;;;;;;;10.93;6.80;;;;;20.30;101173.00;;;;10121324;29;20230;-81
2023/07/09 03:15:41;;;;;;;9.77;7.00;;;;;20.20;101176.00;;;;10126668;29;20235;-81
2023/07/09 03:20:42;;;;;;;10.35;6.95;;;;;20.10;101175.00;;;;10146603;29;20243;-80
2023/07/09 03:25:44;;;;;;;12.35;7.72;;;;;20.00;101175.00;;;;10101012;29;20208;-81
2023/07/09 03:30:47;;;;;;;10.63;7.10;;;;;19.90;101177.00;;;;10093045;29;20262;-81
2023/07/09 03:35:50;;;;;;;13.07;7.95;;;;;19.90;101173.00;;;;10119000;29;20210;-81
2023/07/09 03:40:55;;;;;;;9.15;6.95;;;;;19.80;101172.00;;;;10113854;29;20218;-81
2023/07/09 03:45:56;;;;;;;12.27;7.70;;;;;19.80;101173.00;;;;10107447;29;20211;-81
2023/07/09 03:50:57;;;;;;;10.90;6.68;;;;;19.80;101175.00;;;;10135982;29;20615;-81
2023/07/09 03:56:00;;;;;;;7.50;6.18;;;;;19.80;101178.00;;;;10102168;29;20204;-81
2023/07/09 04:01:01;;;;;;;9.13;6.30;;;;;19.90;101182.00;;;;10125389;29;20236;-81
2023/07/09 04:06:03;;;;;;;9.02;6.63;;;;;20.00;101183.00;;;;10130985;29;20745;-83
2023/07/09 04:11:05;;;;;;;9.30;6.40;;;;;20.10;101187.00;;;;10130737;29;20223;-81
2023/07/09 04:16:06;;;;;;;10.85;5.82;;;;;20.20;101194.00;;;;10119732;29;20255;-81
2023/07/09 04:21:08;;;;;;;8.57;6.18;;;;;20.40;101193.00;;;;10138018;29;20211;-81
2023/07/09 04:26:13;;;;;;;8.52;6.10;;;;;20.60;101191.00;;;;10125615;29;20207;-81
2023/07/09 04:31:15;;;;;;;7.60;6.15;;;;;20.70;101199.00;;;;10141446;29;20590;-81
2023/07/09 04:36:16;;;;;;;9.18;6.38;;;;;20.80;101200.00;;;;10134015;29;20278;-81
2023/07/09 04:41:18;;;;;;;7.80;5.78;;;;;21.00;101199.00;;;;10136557;29;20207;-81
2023/07/09 04:46:19;;;;;;;10.80;5.88;;;;;21.10;101193.00;;;;10117487;29;20215;-81
2023/07/09 04:51:21;;;;;;;9.65;5.38;;;;;21.30;101189.00;;;;10112500;29;20215;-81
2023/07/09 04:56:23;;;;;;;9.30;5.78;;;;;21.40;101188.00;;;;10090898;29;20197;-81
2023/07/09 05:01:24;;;;;;;7.30;5.80;;;;;21.60;101201.00;;;;10128068;29;20292;-81
2023/07/09 05:06:25;;;;;;;10.90;6.50;;;;;21.80;101198.00;;;;10100071;29;20212;-81
2023/07/09 05:11:27;;;;;;;10.15;6.22;;;;;22.00;101195.00;;;;10129250;29;20313;-81
2023/07/09 05:16:28;;;;;;;11.18;6.07;;;;;22.40;101194.00;;;;10135265;29;20224;-81
2023/07/09 05:21:30;;;;;;;9.20;6.20;;;;;22.80;101190.00;;;;10115710;29;20208;-82
2023/07/09 05:26:31;;;;;;;7.95;6.13;;;;;23.20;101190.00;;;;10133185;29;20278;-81
2023/07/09 05:31:33;;;;;;;7.70;5.65;;;;;23.60;101188.00;;;;10097064;29;20223;-82
2023/07/09 05:36:35;;;;;;;13.57;6.10;;;;;24.10;101189.00;;;;10118538;29;20223;-81
2023/07/09 05:41:36;;;;;;;9.95;5.68;;;;;24.70;101187.00;;;;10118936;29;20203;-81
2023/07/09 05:46:37;;;;;;;9.20;5.57;;;;;25.30;101182.00;;;;10133952;29;20271;-81
2023/07/09 05:51:39;;;;;;;11.50;5.32;;;;;25.70;101185.00;;;;10118463;29;20623;-81
2023/07/09 05:56:40;;;;;;;11.40;5.78;;;;;26.20;101188.00;;;;10132415;29;20256;-81
2023/07/09 06:01:41;;;;;;;7.55;5.35;;;;;26.60;101192.00;;;;10132099;29;20207;-81
2023/07/09 06:06:43;;;;;;;10.27;6.72;;;;;27.00;101190.00;;;;10120541;29;20207;-82
2023/07/09 06:11:44;;;;;;;6.10;5.45;;;;;27.20;101194.00;;;;10127293;29;20258;-81
2023/07/09 06:16:46;;;;;;;9.20;5.10;;;;;26.80;101199.00;;;;10109063;29;20260;-82
2023/07/09 06:21:47;;;;;;;6.97;5.68;;;;;27.10;101207.00;;;;10119491;29;20210;-81
2023/07/09 06:26:48;;;;;;;15.48;5.82;;;;;27.50;101214.00;;;;10120308;29;20653;-82
2023/07/09 06:31:49;;;;;;;7.60;5.32;;;;;27.80;101212.00;;;;10116635;29;20262;-81
2023/07/09 06:36:51;;;;;;;10.48;5.30;;;;;28.00;101221.00;;;;10157569;29;20203;-82
2023/07/09 06:41:52;;;;;;;7.90;5.05;;;;;28.40;101237.00;;;;10151033;29;20219;-81
2023/07/09 06:47:09;;;;;;;8.13;5.70;;;;;28.70;101238.00;;;;10129059;29;20211;-81
2023/07/09 06:52:10;;;;;;;11.15;5.80;;;;;28.90;101241.00;;;;10101015;29;20223;-82
2023/07/09 06:57:12;;;;;;;13.43;5.75;;;;;29.10;101232.00;;;;10133602;29;20211;-81
2023/07/09 07:02:13;;;;;;;9.27;5.32;;;;;29.10;101237.00;;;;10150382;29;20234;-82
2023/07/09 07:07:15;;;;;;;8.98;4.53;;;;;29.50;101229.00;;;;10127464;29;20207;-82
2023/07/09 07:12:28;;;;;;;5.32;4.57;;;;;30.10;101235.00;;;;10106114;29;20223;-83
2023/07/09 07:17:29;;;;;;;6.57;4.35;;;;;30.40;101233.00;;;;10116162;29;20228;-82
2023/07/09 07:22:30;;;;;;;11.52;5.15;;;;;30.70;101237.00;;;;10103637;29;20382;-82
2023/07/09 07:27:32;;;;;;;12.02;5.35;;;;;31.10;101239.00;;;;10106384;29;20203;-83
2023/07/09 07:32:33;;;;;;;8.32;5.97;;;;;31.10;101246.00;;;;10104971;29;20867;-82
2023/07/09 07:37:34;;;;;;;10.95;6.63;;;;;31.00;101233.00;;;;10119491;29;20271;-83
2023/07/09 07:42:36;;;;;;;9.50;6.07;;;;;30.80;101228.00;;;;10112848;29;20240;-83
2023/07/09 07:47:39;;;;;;;10.23;6.47;;;;;30.80;101229.00;;;;10120849;29;20196;-83
2023/07/09 07:52:40;;;;;;;15.43;9.52;;;;;31.10;101231.00;;;;10116015;29;20223;-82
2023/07/09 07:57:41;;;;;;;16.92;11.35;;;;;30.60;101237.00;;;;10120677;29;20720;-82
2023/07/09 08:02:43;;;;;;;19.95;14.02;;;;;30.60;101232.00;;;;10124332;29;20559;-82
2023/07/09 08:07:44;;;;;;;26.48;22.85;;;;;30.60;101238.00;;;;10111679;29;20577;-82
2023/07/09 08:12:45;;;;;;;30.02;26.63;;;;;30.40;101241.00;;;;10120136;29;20253;-82
2023/07/09 08:17:46;;;;;;;34.25;25.17;;;;;30.40;101230.00;;;;10109770;29;20207;-83
2023/07/09 08:22:48;;;;;;;31.40;24.58;;;;;30.60;101231.00;;;;10116868;29;20384;-83
2023/07/09 08:27:49;;;;;;;27.05;23.42;;;;;30.60;101228.00;;;;10120195;29;20263;-83
2023/07/09 08:32:50;;;;;;;30.58;26.23;;;;;30.60;101233.00;;;;10118925;29;20215;-83
2023/07/09 08:37:52;;;;;;;28.95;23.45;;;;;30.70;101232.00;;;;10120968;29;20393;-83
2023/07/09 08:43:02;;;;;;;33.83;26.30;;;;;30.90;101217.00;;;;10107824;29;20200;-83
2023/07/09 08:48:10;;;;;;;32.35;28.85;;;;;31.80;101225.00;;;;10111590;29;20231;-82
2023/07/09 08:53:31;;;;;;;32.38;28.77;;;;;31.70;101222.00;;;;10115006;29;20262;-82
2023/07/09 08:58:32;;;;;;;31.48;28.17;;;;;32.60;101218.00;;;;10114115;29;20346;-83
2023/07/09 09:03:40;;;;;;;35.45;29.67;;;;;33.20;101225.00;;;;10124859;29;20210;-82
2023/07/09 09:08:55;;;;;;;27.48;24.17;;;;;34.00;101217.00;;;;10117499;29;20223;-84
2023/07/09 09:14:01;;;;;;;34.17;27.77;;;;;34.50;101207.00;;;;10115630;29;20223;-83
2023/07/09 09:19:15;;;;;;;30.50;24.95;;;;;34.40;101206.00;;;;10112176;29;20196;-83
2023/07/09 09:24:25;;;;;;;30.10;25.08;;;;;35.20;101221.00;;;;10121193;29;20256;-82
2023/07/09 09:29:26;;;;;;;32.47;27.05;;;;;35.50;101224.00;;;;10091218;29;20313;-82
2023/07/09 09:34:29;;;;;;;31.80;26.98;;;;;35.10;101220.00;;;;10112013;29;20214;-82
2023/07/09 09:39:31;;;;;;;29.55;25.25;;;;;35.00;101243.00;;;;10121972;29;20203;-83
2023/07/09 09:44:33;;;;;;;31.35;27.55;;;;;34.80;101263.00;;;;10123094;29;20301;-83
2023/07/09 09:49:42;;;;;;;28.20;22.83;;;;;35.10;101263.00;;;;10124422;29;20234;-82
2023/07/09 09:54:56;;;;;;;27.50;24.55;;;;;35.50;101267.00;;;;10117525;29;20702;-81
2023/07/09 09:59:58;;;;;;;30.38;24.08;;;;;35.10;101274.00;;;;10111977;29;20232;-82
2023/07/09 10:05:00;;;;;;;29.67;26.58;;;;;35.70;101282.00;;;;10109533;29;20263;-83
2023/07/09 10:10:03;;;;;;;29.02;25.30;;;;;35.50;101297.00;;;;10115468;29;20227;-82
2023/07/09 10:15:14;;;;;;;23.02;20.38;;;;;36.00;101269.00;;;;10115096;29;20240;-82
2023/07/09 10:20:36;;;;;;;25.38;20.38;;;;;36.20;101279.00;;;;10100133;29;20204;-82
2023/07/09 10:26:01;;;;;;;24.70;22.17;;;;;34.60;101273.00;;;;10112960;29;20593;-82
2023/07/09 10:31:26;;;;;;;22.33;18.15;;;;;33.70;101278.00;;;;10101192;29;20231;-82
2023/07/09 10:36:33;;;;;;;20.30;18.08;;;;;33.10;101290.00;;;;10109447;29;20208;-82
2023/07/09 10:41:37;;;;;;;21.23;16.33;;;;;32.90;101310.00;;;;10121137;29;20206;-82
2023/07/09 10:46:42;;;;;;;14.45;12.85;;;;;32.90;101322.00;;;;10105858;29;20223;-82
2023/07/09 10:51:52;;;;;;;15.60;11.50;;;;;31.90;101335.00;;;;10095011;29;20216;-82
2023/07/09 10:57:00;;;;;;;10.52;8.93;;;;;31.40;101369.00;;;;10118121;29;20291;-82
2023/07/09 11:02:16;;;;;;;11.55;8.10;;;;;31.30;101393.00;;;;10126693;29;20203;-81
2023/07/09 11:07:27;;;;;;;10.55;7.35;;;;;31.70;101376.00;;;;10117831;29;20685;-81
2023/07/09 11:12:35;;;;;;;10.30;6.47;;;;;31.10;101368.00;;;;10116875;29;20247;-82
2023/07/09 11:17:40;;;;;;;8.13;6.07;;;;;30.40;101358.00;;;;10099494;29;20651;-82
2023/07/09 11:22:41;;;;;;;8.00;5.60;;;;;30.00;101367.00;;;;10110288;29;20211;-81
2023/07/09 11:27:50;;;;;;;9.82;5.50;;;;;29.70;101344.00;;;;10113886;29;20226;-81
2023/07/09 11:32:56;;;;;;;10.10;5.43;;;;;28.90;101368.00;;;;10117053;29;20223;-81
2023/07/09 11:38:21;;;;;;;8.02;4.78;;;;;28.10;101381.00;;;;10111832;29;20252;-81
2023/07/09 11:43:34;;;;;;;8.43;4.25;;;;;27.70;101396.00;;;;10106761;29;20510;-81
2023/07/09 11:48:35;;;;;;;6.05;4.80;;;;;27.20;101388.00;;;;10112839;29;20230;-81
2023/07/09 11:53:47;;;;;;;8.02;4.43;;;;;26.80;101358.00;;;;10106810;29;20212;-82
2023/07/09 11:58:56;;;;;;;6.47;5.00;;;;;26.40;101365.00;;;;10124078;29;20271;-81
2023/07/09 12:03:58;;;;;;;6.57;4.35;;;;;26.10;101362.00;;;;10109391;29;20309;-82
2023/07/09 12:09:00;;;;;;;7.63;5.38;;;;;25.80;101379.00;;;;10117723;29;20218;-81
2023/07/09 12:14:21;;;;;;;5.85;4.18;;;;;25.60;101394.00;;;;10125176;29;20203;-80
2023/07/09 12:19:24;;;;;;;5.20;3.97;;;;;25.40;101372.00;;;;10103638;29;20294;-80
2023/07/09 12:24:37;;;;;;;5.43;3.72;;;;;25.20;101416.00;;;;10099947;29;20235;-81
2023/07/09 12:29:39;;;;;;;7.57;4.07;;;;;25.00;101494.00;;;;10122433;29;20226;-81
2023/07/09 12:34:41;;;;;;;8.45;3.95;;;;;24.60;101543.00;;;;10092918;29;20231;-82
2023/07/09 12:39:42;;;;;;;9.80;5.30;;;;;23.90;101559.00;;;;10122561;29;20207;-80
2023/07/09 12:44:46;;;;;;;11.15;6.07;;;;;22.60;101554.00;;;;10137903;29;20292;-81
2023/07/09 12:49:51;;;;;;;11.35;7.93;;;;;22.00;101543.00;;;;10132423;29;20227;-83
2023/07/09 12:55:01;;;;;;;8.60;6.20;;;;;21.60;101520.00;;;;10131829;29;20211;-83
2023/07/09 13:00:14;;;;;;;10.05;6.70;;;;;21.40;101514.00;;;;10138828;29;20207;-84
2023/07/09 13:05:21;;;;;;;14.30;8.70;;;;;21.60;101494.00;;;;10076018;29;20218;-84
2023/07/09 13:10:29;;;;;;;13.07;9.40;;;;;22.00;101467.00;;;;10134870;29;20223;-86
2023/07/09 13:15:38;;;;;;;12.20;10.15;;;;;22.80;101443.00;;;;10132454;29;20295;-86
2023/07/09 13:20:42;;;;;;;11.52;9.27;;;;;23.90;101432.00;;;;10120961;29;20204;-88
2023/07/09 13:25:44;;;;;;;17.63;9.80;;;;;24.30;101417.00;;;;10140782;29;20196;-86
2023/07/09 13:30:56;;;;;;;14.93;9.80;;;;;24.50;101400.00;;;;10136539;29;20683;-89
2023/07/09 13:35:57;;;;;;;14.63;8.88;;;;;24.50;101389.00;;;;10126894;29;20208;-88
2023/07/09 13:41:08;;;;;;;11.75;8.07;;;;;24.70;101407.00;;;;10142156;29;20219;-88
2023/07/09 13:46:10;;;;;;;11.55;7.45;;;;;24.40;101397.00;;;;10137761;29;20205;-85
2023/07/09 13:51:16;;;;;;;13.38;8.48;;;;;24.10;101403.00;;;;10144449;29;20226;-85
2023/07/09 13:56:18;;;;;;;12.63;7.32;;;;;23.90;101397.00;;;;10144562;29;20641;-85
2023/07/09 14:01:23;;;;;;;12.98;7.93;;;;;24.10;101402.00;;;;10132438;29;20217;-85
2023/07/09 14:06:24;;;;;;;11.07;7.00;;;;;24.50;101398.00;;;;10133727;29;20195;-89
2023/07/09 14:11:25;;;;;;;13.90;7.22;;;;;24.80;101391.00;;;;10113252;29;20595;-84
2023/07/09 14:16:27;;;;;;;11.95;6.70;;;;;25.70;101383.00;;;;10130986;29;20199;-82
2023/07/09 14:21:28;;;;;;;9.93;6.70;;;;;26.20;101367.00;;;;10136958;29;20211;-84
2023/07/09 14:26:31;;;;;;;10.65;6.95;;;;;27.00;101360.00;;;;10136161;29;20607;-82
2023/07/09 14:31:34;;;;;;;9.15;6.97;;;;;27.20;101350.00;;;;10113618;29;20351;-83
2023/07/09 14:36:36;;;;;;;7.88;6.43;;;;;27.90;101344.00;;;;10106597;29;20265;-85
2023/07/09 14:41:37;;;;;;;10.63;6.38;;;;;28.70;101334.00;;;;10124243;29;20236;-84
2023/07/09 14:46:39;;;;;;;8.52;5.53;;;;;28.60;101327.00;;;;10134297;29;20214;-85
2023/07/09 14:51:40;;;;;;;8.15;4.78;;;;;27.90;101335.00;;;;10113133;29;20294;-83
2023/07/09 14:56:42;;;;;;;10.18;5.82;;;;;27.30;101341.00;;;;10130419;29;20206;-84
2023/07/09 15:01:44;;;;;;;7.88;5.70;;;;;27.30;101342.00;;;;10123512;29;20211;-84
2023/07/09 15:06:50;;;;;;;9.75;6.00;;;;;26.90;101343.00;;;;10114971;29;20215;-84
2023/07/09 15:11:56;;;;;;;10.10;5.90;;;;;27.00;101343.00;;;;10109362;29;20228;-83
2023/07/09 15:16:58;;;;;;;6.15;5.22;;;;;27.70;101344.00;;;;10128828;29;20203;-82
2023/07/09 15:22:02;;;;;;;8.25;5.30;;;;;27.90;101361.00;;;;10137217;29;20322;-85
2023/07/09 15:27:04;;;;;;;9.40;5.53;;;;;28.70;101350.00;;;;10127217;29;20708;-84
2023/07/09 15:32:06;;;;;;;12.02;5.30;;;;;28.90;101362.00;;;;10124491;29;20223;-84
2023/07/09 15:37:14;;;;;;;8.40;4.82;;;;;29.20;101346.00;;;;10133740;29;20259;-82
2023/07/09 15:42:16;;;;;;;7.47;4.75;;;;;28.30;101366.00;;;;10134618;29;20207;-83
2023/07/09 15:47:20;;;;;;;8.38;4.82;;;;;28.20;101355.00;;;;10146561;29;20225;-83
2023/07/09 15:52:22;;;;;;;7.47;4.18;;;;;28.20;101348.00;;;;10145057;29;20215;-83
2023/07/09 15:57:23;;;;;;;4.88;3.55;;;;;27.40;101350.00;;;;10126669;29;20220;-81
2023/07/09 16:02:42;;;;;;;6.78;3.83;;;;;27.00;101345.00;;;;10116836;29;20234;-83
2023/07/09 16:07:43;;;;;;;8.13;4.22;;;;;26.70;101349.00;;;;10137098;29;20222;-83
2023/07/09 16:12:49;;;;;;;5.78;4.13;;;;;26.20;101363.00;;;;10133676;29;20586;-82
2023/07/09 16:17:51;;;;;;;6.40;3.90;;;;;26.00;101369.00;;;;10138711;29;20195;-82
2023/07/09 16:22:56;;;;;;;6.40;2.97;;;;;26.00;101373.00;;;;10127107;29;20654;-84
2023/07/09 16:27:57;;;;;;;8.65;5.32;;;;;25.60;101377.00;;;;10109489;29;20227;-81
2023/07/09 16:32:58;;;;;;;7.28;5.18;;;;;26.00;101377.00;;;;10137704;29;20254;-83
2023/07/09 16:38:00;;;;;;;8.60;5.13;;;;;26.10;101381.00;;;;10105444;29;20236;-81
2023/07/09 16:43:02;;;;;;;9.30;5.70;;;;;26.00;101376.00;;;;10114235;29;20208;-81
2023/07/09 16:48:04;;;;;;;9.98;5.57;;;;;25.40;101370.00;;;;10132069;29;20204;-82
2023/07/09 16:53:12;;;;;;;11.20;7.13;;;;;25.20;101369.00;;;;10136064;29;20291;-81
2023/07/09 16:58:23;;;;;;;11.82;7.00;;;;;24.80;101378.00;;;;10137851;29;20207;-80
2023/07/09 17:03:25;;;;;;;12.05;8.02;;;;;24.40;101374.00;;;;10140411;29;20204;-80
2023/07/09 17:08:27;;;;;;;12.02;8.23;;;;;24.30;101390.00;;;;10130618;29;20212;-81
2023/07/09 17:13:28;;;;;;;8.95;7.07;;;;;23.90;101391.00;;;;10131582;29;20593;-79
2023/07/09 17:18:31;;;;;;;10.93;7.10;;;;;23.60;101409.00;;;;10135434;29;20216;-80
2023/07/09 17:23:33;;;;;;;9.95;6.43;;;;;23.40;101407.00;;;;10126721;29;20207;-79
2023/07/09 17:28:35;;;;;;;12.55;6.20;;;;;23.50;101410.00;;;;10137183;29;20250;-81
2023/07/09 17:33:36;;;;;;;6.25;3.90;;;;;23.30;101430.00;;;;10151753;29;20238;-80
2023/07/09 17:38:38;;;;;;;8.07;4.47;;;;;22.80;101439.00;;;;10148077;29;20574;-80
2023/07/09 17:43:41;;;;;;;6.45;4.00;;;;;22.50;101440.00;;;;10123745;29;20199;-80
2023/07/09 17:48:42;;;;;;;8.32;3.78;;;;;22.40;101433.00;;;;10143660;29;20222;-80
2023/07/09 17:53:43;;;;;;;4.63;3.17;;;;;22.20;101438.00;;;;10119949;29;20222;-79
2023/07/09 17:58:45;;;;;;;5.05;3.65;;;;;22.10;101455.00;;;;10134411;29;20685;-81
2023/07/09 18:03:46;;;;;;;6.78;3.25;;;;;22.00;101454.00;;;;10149735;29;20212;-79
2023/07/09 18:08:48;;;;;;;4.28;2.58;;;;;22.00;101462.00;;;;10137851;29;20229;-75
2023/07/09 18:13:49;;;;;;;5.05;2.53;;;;;21.90;101464.00;;;;10143705;29;20251;-75
2023/07/09 18:18:50;;;;;;;4.63;2.50;;;;;21.80;101464.00;;;;10132128;29;20207;-81
2023/07/09 18:23:51;;;;;;;6.70;2.70;;;;;21.90;101458.00;;;;10130957;29;20282;-79
2023/07/09 18:28:53;;;;;;;5.78;2.60;;;;;22.00;101461.00;;;;10126119;29;20254;-79
2023/07/09 18:33:54;;;;;;;5.72;2.53;;;;;21.90;101457.00;;;;10123965;29;20195;-75
2023/07/09 18:38:55;;;;;;;6.38;2.30;;;;;21.80;101451.00;;;;10134998;29;20212;-83
2023/07/09 18:43:57;;;;;;;5.50;2.20;;;;;21.70;101451.00;;;;10138864;29;20200;-81
2023/07/09 18:48:58;;;;;;;6.70;2.03;;;;;21.50;101467.00;;;;10108710;29;20211;-79
2023/07/09 18:54:00;;;;;;;3.80;2.08;;;;;21.40;101458.00;;;;10116724;29;20203;-80
2023/07/09 18:59:09;;;;;;;5.90;2.45;;;;;21.30;101455.00;;;;10122175;29;20207;-81
2023/07/09 19:04:33;;;;;;;6.60;2.83;;;;;21.20;101469.00;;;;10123973;29;20294;-75
2023/07/09 19:09:35;;;;;;;5.22;2.45;;;;;21.20;101466.00;;;;10116292;29;20223;-80
2023/07/09 19:14:37;;;;;;;4.63;2.65;;;;;21.20;101465.00;;;;10133033;29;20235;-81
2023/07/09 19:19:39;;;;;;;6.40;2.85;;;;;21.20;101456.00;;;;10129185;29;20215;-78
2023/07/09 19:24:43;;;;;;;7.90;3.20;;;;;21.00;101464.00;;;;10110664;29;20208;-75
2023/07/09 19:29:49;;;;;;;6.88;2.85;;;;;20.80;101467.00;;;;10088289;29;20226;-75
2023/07/09 19:34:50;;;;;;;6.93;3.45;;;;;20.70;101464.00;;;;10123574;29;20208;-74
2023/07/09 19:39:51;;;;;;;5.82;3.08;;;;;20.60;101468.00;;;;10129713;29;20222;-81
2023/07/09 19:44:52;;;;;;;6.65;3.20;;;;;20.50;101475.00;;;;10130816;29;20247;-82
2023/07/09 19:49:56;;;;;;;7.32;3.63;;;;;20.40;101492.00;;;;10134834;29;20219;-81
2023/07/09 19:54:59;;;;;;;8.38;3.25;;;;;20.30;101504.00;;;;10135861;29;20211;-75
2023/07/09 20:00:00;;;;;;;6.57;3.53;;;;;20.20;101516.00;;;;10138013;29;20318;-82
2023/07/09 20:05:04;;;;;;;7.45;3.13;;;;;20.10;101512.00;;;;10143552;29;20570;-82
2023/07/09 20:10:05;;;;;;;4.75;2.53;;;;;20.00;101515.00;;;;10122784;29;20223;-82
2023/07/09 20:15:25;;;;;;;5.93;3.33;;;;;19.80;101508.00;;;;10142189;29;20266;-82
2023/07/09 20:20:27;;;;;;;5.80;3.10;;;;;19.80;101509.00;;;;10152661;29;20293;-79
2023/07/09 20:25:29;;;;;;;7.57;2.97;;;;;19.70;101505.00;;;;10136435;29;20266;-79
2023/07/09 20:30:31;;;;;;;7.85;3.40;;;;;19.70;101500.00;;;;10106071;29;20216;-78
2023/07/09 20:35:32;;;;;;;7.88;3.53;;;;;19.60;101489.00;;;;10142130;29;20219;-78
2023/07/09 20:40:34;;;;;;;8.93;3.13;;;;;19.50;101487.00;;;;10140438;29;20247;-79
2023/07/09 20:45:35;;;;;;;7.00;3.00;;;;;19.40;101493.00;;;;10132134;29;20258;-78
2023/07/09 20:50:36;;;;;;;7.78;3.67;;;;;19.30;101491.00;;;;10132738;29;20235;-75
2023/07/09 20:55:38;;;;;;;6.40;3.20;;;;;19.20;101497.00;;;;10130698;29;20448;-75
2023/07/09 21:00:39;;;;;;;6.30;2.95;;;;;19.10;101505.00;;;;10147876;29;20210;-75
2023/07/09 21:05:40;;;;;;;8.25;3.00;;;;;18.90;101509.00;;;;10141878;29;20211;-79
2023/07/09 21:10:42;;;;;;;6.45;2.88;;;;;18.90;101515.00;;;;10135570;29;20593;-80
2023/07/09 21:15:51;;;;;;;7.00;3.15;;;;;18.80;101520.00;;;;10118913;29;20260;-79
2023/07/09 21:20:53;;;;;;;9.60;2.90;;;;;18.70;101524.00;;;;10125716;29;20243;-75
2023/07/09 21:25:54;;;;;;;7.70;3.00;;;;;18.70;101526.00;;;;10118522;29;20204;-80
2023/07/09 21:30:55;;;;;;;6.30;3.03;;;;;18.60;101534.00;;;;10097456;29;20224;-75
2023/07/09 21:35:59;;;;;;;5.57;3.10;;;;;18.60;101536.00;;;;10123509;29;20255;-75
2023/07/09 21:41:00;;;;;;;6.57;3.20;;;;;18.60;101546.00;;;;10114994;29;20195;-75
2023/07/09 21:46:02;;;;;;;5.50;3.38;;;;;18.60;101555.00;;;;10119193;29;20211;-80
2023/07/09 21:51:09;;;;;;;8.10;3.08;;;;;18.80;101573.00;;;;10121047;29;20224;-79
2023/07/09 21:56:11;;;;;;;6.53;3.03;;;;;18.80;101558.00;;;;10115746;29;20196;-79
2023/07/09 22:01:22;;;;;;;6.90;2.55;;;;;18.90;101553.00;;;;10120179;29;20562;-79
2023/07/09 22:06:30;;;;;;;6.18;2.25;;;;;18.90;101551.00;;;;10105335;29;20271;-77
2023/07/09 22:11:31;;;;;;;7.30;2.60;;;;;18.90;101566.00;;;;10111879;29;20716;-80
2023/07/09 22:16:32;;;;;;;4.55;2.55;;;;;18.90;101574.00;;;;10122103;29;20234;-81
2023/07/09 22:21:36;;;;;;;2.30;1.90;;;;;18.90;101577.00;;;;10135660;29;20211;-79
2023/07/09 22:26:37;;;;;;;4.05;1.73;;;;;18.90;101582.00;;;;10122005;29;20243;-79
2023/07/09 22:31:41;;;;;;;6.05;2.28;;;;;18.90;101578.00;;;;10125829;29;20226;-79
2023/07/09 22:36:42;;;;;;;3.83;2.08;;;;;18.80;101592.00;;;;10106370;29;20243;-78
2023/07/09 22:41:45;;;;;;;6.00;1.83;;;;;18.80;101594.00;;;;10110809;29;20208;-78
2023/07/09 22:46:46;;;;;;;3.75;1.80;;;;;18.80;101592.00;;;;10111321;29;20696;-79
2023/07/09 22:51:48;;;;;;;2.97;1.58;;;;;18.60;101585.00;;;;10127795;29;20222;-81
2023/07/09 22:56:49;;;;;;;4.20;1.73;;;;;18.40;101571.00;;;;10121089;29;20248;-79
2023/07/09 23:01:51;;;;;;;4.10;2.00;;;;;18.10;101566.00;;;;10128233;29;20219;-80
2023/07/09 23:06:52;;;;;;;2.70;1.50;;;;;17.90;101556.00;;;;10125576;29;20212;-80
2023/07/09 23:11:53;;;;;;;4.22;1.88;;;;;17.70;101564.00;;;;10125688;29;20710;-80
2023/07/09 23:16:55;;;;;;;5.60;2.00;;;;;17.50;101564.00;;;;10132113;29;20248;-80
2023/07/09 23:22:00;;;;;;;5.18;2.70;;;;;17.40;101566.00;;;;10123985;29;20301;-80
2023/07/09 23:27:02;;;;;;;3.58;2.10;;;;;17.30;101569.00;;;;10103695;29;20250;-79
2023/07/09 23:32:03;;;;;;;7.07;2.40;;;;;17.30;101586.00;;;;10140063;29;20226;-79
2023/07/09 23:37:05;;;;;;;4.45;2.17;;;;;17.30;101591.00;;;;10135963;29;20218;-79
2023/07/09 23:42:09;;;;;;;3.70;2.13;;;;;17.30;101586.00;;;;10131597;29;20239;-80
2023/07/09 23:47:11;;;;;;;5.00;2.00;;;;;17.30;101571.00;;;;10115280;29;20766;-79
2023/07/09 23:52:13;;;;;;;6.10;2.17;;;;;17.30;101560.00;;;;10115074;29;20560;-80
2023/07/09 23:57:15;;;;;;;7.13;2.35;;;;;17.20;101559.00;;;;10128444;29;20207;-79
